Time;durP1;ratioP1;P1;durP2;ratioP2;P2;SDS_P1;SDS_P2;PMS_P1;PMS_P2;Temp;Humidity;BMP_temperature;BMP_pressure;BME280_temperature;BME280_humidity;BME280_pressure;Samples;Min_cycle;Max_cycle;Signal;HPM_P1;HPM_P2
2022/05/27 00:00:41;;;;;;;1.02;0.80;;;21.60;67.80;;;;;;5099930;28;20051;-46
2022/05/27 00:03:08;;;;;;;1.75;0.90;;;21.60;68.00;;;;;;5102735;28;20035;-45
2022/05/27 00:05:34;;;;;;;2.55;1.15;;;21.60;68.10;;;;;;5103162;28;20028;-41
2022/05/27 00:08:00;;;;;;;1.30;0.90;;;21.60;68.20;;;;;;5100670;28;20043;-42
2022/05/27 00:10:26;;;;;;;3.38;0.90;;;21.60;68.30;;;;;;5102355;28;20028;-43
2022/05/27 00:12:53;;;;;;;3.75;1.05;;;21.60;68.40;;;;;;5103214;28;20029;-43
2022/05/27 00:15:19;;;;;;;1.85;0.93;;;21.60;68.50;;;;;;5102627;28;20028;-44
2022/05/27 00:17:46;;;;;;;1.98;0.95;;;21.60;68.60;;;;;;5097953;28;20067;-44
2022/05/27 00:20:13;;;;;;;4.55;1.50;;;21.60;68.80;;;;;;5100667;28;20126;-45
2022/05/27 00:22:39;;;;;;;9.20;2.03;;;21.60;68.70;;;;;;5101092;28;20047;-50
2022/05/27 00:25:06;;;;;;;3.45;1.58;;;21.60;68.80;;;;;;5102236;28;20036;-46
2022/05/27 00:27:32;;;;;;;4.03;1.42;;;21.60;69.60;;;;;;5096904;28;20024;-49
2022/05/27 00:29:58;;;;;;;1.50;0.80;;;21.60;69.10;;;;;;5097322;28;20028;-53
2022/05/27 00:32:24;;;;;;;1.35;0.90;;;21.70;67.20;;;;;;5099718;28;20021;-55
2022/05/27 00:34:50;;;;;;;2.38;0.82;;;21.70;65.10;;;;;;5102269;28;20092;-55
2022/05/27 00:37:16;;;;;;;3.05;0.80;;;21.70;65.20;;;;;;5104621;28;20024;-50
2022/05/27 00:39:43;;;;;;;2.47;0.80;;;21.70;65.30;;;;;;5108401;28;20385;-51
2022/05/27 00:42:09;;;;;;;2.10;1.00;;;21.70;65.50;;;;;;5107810;28;20032;-49
2022/05/27 00:44:35;;;;;;;3.97;1.13;;;21.70;65.70;;;;;;5100193;28;20035;-51
2022/05/27 00:47:13;;;;;;;3.53;1.00;;;21.70;66.10;;;;;;5100385;28;20047;-47
2022/05/27 00:49:46;;;;;;;;;;;21.80;66.40;;;;;;5103327;28;20284;-48
2022/05/27 00:52:15;;;;;;;2.95;1.25;;;21.80;66.60;;;;;;5097927;28;19904;-53
2022/05/27 00:54:41;;;;;;;3.22;1.10;;;21.80;68.10;;;;;;5089567;28;20030;-53
2022/05/27 00:57:16;;;;;;;1.75;0.82;;;21.80;68.70;;;;;;5099151;28;20091;-51
2022/05/27 00:59:59;;;;;;;2.60;1.10;;;21.80;69.20;;;;;;5102021;28;20032;-50
2022/05/27 01:02:25;;;;;;;3.95;1.00;;;21.80;69.50;;;;;;5115085;27;20050;-49
2022/05/27 01:04:51;;;;;;;2.35;1.00;;;21.80;69.80;;;;;;5098590;28;20028;-49
2022/05/27 01:07:17;;;;;;;2.88;1.13;;;21.80;70.00;;;;;;5105622;28;20020;-51
2022/05/27 01:09:45;;;;;;;1.50;0.90;;;21.80;70.10;;;;;;5106705;28;20035;-45
2022/05/27 01:12:49;;;;;;;2.47;1.00;;;21.80;70.30;;;;;;5102424;28;20109;-45
2022/05/27 01:15:44;;;;;;;6.25;1.17;;;21.90;70.40;;;;;;5096626;28;20032;-55
2022/05/27 01:18:25;;;;;;;2.25;0.90;;;21.90;70.50;;;;;;5097206;28;20119;-44
2022/05/27 01:21:01;;;;;;;4.10;1.20;;;21.90;70.50;;;;;;5099474;28;20055;-47
2022/05/27 01:23:53;;;;;;;1.63;1.00;;;21.90;70.70;;;;;;5093844;28;20145;-45
2022/05/27 01:26:35;;;;;;;2.97;1.00;;;22.00;70.70;;;;;;5099730;28;20032;-48
2022/05/27 01:29:39;;;;;;;1.30;0.73;;;22.00;70.70;;;;;;5095371;28;20079;-45
2022/05/27 01:32:18;;;;;;;3.17;0.80;;;22.00;70.50;;;;;;5100783;28;20058;-46
2022/05/27 01:35:07;;;;;;;2.08;0.90;;;22.00;70.50;;;;;;5096591;28;20036;-47
2022/05/27 01:38:16;;;;;;;5.15;1.15;;;22.00;70.60;;;;;;5101771;28;20050;-46
2022/05/27 01:41:03;;;;;;;1.77;0.90;;;22.10;70.60;;;;;;5088538;28;20048;-49
2022/05/27 01:44:03;;;;;;;1.40;0.80;;;22.10;70.40;;;;;;5101079;28;20307;-44
2022/05/27 01:46:46;;;;;;;2.03;0.70;;;22.10;70.30;;;;;;5097489;28;20064;-43
2022/05/27 01:49:33;;;;;;;2.60;0.70;;;22.10;70.30;;;;;;5099390;28;20024;-46
2022/05/27 01:52:25;;;;;;;1.75;0.77;;;22.20;70.30;;;;;;5098074;28;20038;-45
2022/05/27 01:54:53;;;;;;;1.85;0.98;;;22.20;70.30;;;;;;5097669;28;20096;-42
2022/05/27 01:57:44;;;;;;;3.15;0.90;;;22.20;70.20;;;;;;5101238;28;20024;-45
2022/05/27 02:00:11;;;;;;;4.43;1.10;;;22.20;70.10;;;;;;5093341;28;20047;-44
2022/05/27 02:02:43;;;;;;;2.95;0.75;;;22.20;70.90;;;;;;5095930;28;20019;-46
2022/05/27 02:05:17;;;;;;;1.63;1.00;;;22.20;69.90;;;;;;5097838;28;20036;-43
2022/05/27 02:08:03;;;;;;;2.28;0.90;;;22.20;69.90;;;;;;5091296;28;20056;-44
2022/05/27 02:10:49;;;;;;;1.95;0.70;;;22.30;69.80;;;;;;5096115;28;20051;-43
2022/05/27 02:13:34;;;;;;;1.40;0.70;;;22.30;69.70;;;;;;5127858;27;20504;-48
2022/05/27 02:16:00;;;;;;;3.75;1.00;;;22.30;69.60;;;;;;5101398;28;20032;-45
2022/05/27 02:18:30;;;;;;;1.98;0.70;;;22.30;69.50;;;;;;5093931;28;20499;-45
2022/05/27 02:21:01;;;;;;;2.53;0.80;;;22.30;69.50;;;;;;5102447;28;20155;-42
2022/05/27 02:23:31;;;;;;;5.10;1.00;;;22.30;69.50;;;;;;5099631;28;20039;-42
2022/05/27 02:25:57;;;;;;;1.58;0.80;;;22.30;70.10;;;;;;5102127;28;20516;-43
2022/05/27 02:28:28;;;;;;;2.60;0.80;;;22.40;69.40;;;;;;5095786;28;20028;-45
2022/05/27 02:31:00;;;;;;;2.15;0.70;;;22.40;69.30;;;;;;5092415;28;20280;-47
2022/05/27 02:36:16;;;;;;;2.33;0.80;;;22.40;69.20;;;;;;5094182;28;20148;-49
2022/05/27 02:38:43;;;;;;;2.83;0.80;;;22.40;69.20;;;;;;5114267;27;20036;-47
2022/05/27 02:41:16;;;;;;;2.10;1.00;;;22.40;69.10;;;;;;5098109;28;20028;-47
2022/05/27 02:43:51;;;;;;;1.30;0.82;;;22.40;69.00;;;;;;5104412;28;20024;-46
2022/05/27 02:46:23;;;;;;;2.83;0.82;;;22.40;68.90;;;;;;5097818;28;20074;-44
2022/05/27 02:48:59;;;;;;;1.08;0.70;;;22.50;69.00;;;;;;5103013;28;20059;-49
2022/05/27 02:51:53;;;;;;;1.40;0.70;;;22.50;68.90;;;;;;5102346;28;20067;-45
2022/05/27 02:54:32;;;;;;;1.60;0.82;;;22.50;68.90;;;;;;5095896;28;20393;-44
2022/05/27 02:57:16;;;;;;;1.50;0.80;;;22.50;68.90;;;;;;5084104;28;20024;-49
2022/05/27 02:59:42;;;;;;;0.95;0.70;;;22.50;68.80;;;;;;5099523;28;20126;-47
2022/05/27 03:02:10;;;;;;;2.65;0.90;;;22.50;68.70;;;;;;5095073;28;20032;-47
2022/05/27 03:04:36;;;;;;;1.27;0.70;;;22.50;68.70;;;;;;5100315;28;20039;-45
2022/05/27 03:07:32;;;;;;;1.25;0.80;;;22.50;68.70;;;;;;5101459;28;20107;-45
2022/05/27 03:10:20;;;;;;;1.17;0.80;;;22.50;68.70;;;;;;5088673;28;20112;-46
2022/05/27 03:13:11;;;;;;;1.33;0.70;;;22.50;68.60;;;;;;5099258;28;20034;-48
2022/05/27 03:16:09;;;;;;;2.15;0.70;;;22.50;68.50;;;;;;5100564;28;20476;-47
2022/05/27 03:18:35;;;;;;;1.48;0.70;;;22.50;68.40;;;;;;5105190;28;20114;-46
2022/05/27 03:21:30;;;;;;;1.23;0.65;;;22.50;68.40;;;;;;5101516;28;20040;-47
2022/05/27 03:24:15;;;;;;;2.55;0.70;;;22.50;68.40;;;;;;5086924;28;20118;-50
2022/05/27 03:27:18;;;;;;;1.10;0.70;;;22.50;68.40;;;;;;5099687;28;20031;-52
2022/05/27 03:30:06;;;;;;;1.73;0.80;;;22.60;68.40;;;;;;5019251;28;20037;-50
2022/05/27 03:32:50;;;;;;;2.13;0.90;;;22.60;68.60;;;;;;5035121;28;20053;-49
2022/05/27 03:35:31;;;;;;;0.73;0.70;;;22.60;68.50;;;;;;5036179;28;20194;-50
2022/05/27 03:38:05;;;;;;;1.45;0.65;;;22.60;68.60;;;;;;5018784;28;20473;-46
2022/05/27 03:40:42;;;;;;;1.70;0.80;;;22.60;68.50;;;;;;5033855;28;20041;-47
2022/05/27 03:43:09;;;;;;;1.40;0.75;;;22.60;68.50;;;;;;5047035;28;20025;-45
2022/05/27 03:45:47;;;;;;;1.60;0.80;;;22.60;68.40;;;;;;5021355;28;20026;-44
2022/05/27 03:48:13;;;;;;;1.15;0.77;;;22.60;68.40;;;;;;5035329;28;20036;-44
2022/05/27 03:50:40;;;;;;;1.10;0.80;;;22.60;68.40;;;;;;5036125;28;20045;-44
2022/05/27 03:53:06;;;;;;;0.75;0.65;;;22.60;68.40;;;;;;5036284;28;20040;-48
2022/05/27 03:55:32;;;;;;;1.15;0.68;;;22.60;68.40;;;;;;5038167;28;20056;-46
2022/05/27 03:57:58;;;;;;;2.25;0.70;;;22.60;68.30;;;;;;5035467;28;20033;-46
2022/05/27 04:00:24;;;;;;;1.48;0.80;;;22.60;68.20;;;;;;5031885;28;20042;-46
2022/05/27 04:02:51;;;;;;;1.93;0.70;;;22.70;68.30;;;;;;5039087;28;20066;-44
2022/05/27 04:05:18;;;;;;;0.85;0.65;;;22.60;68.20;;;;;;5100871;28;20581;-45
2022/05/27 04:07:44;;;;;;;1.27;0.70;;;22.60;68.40;;;;;;5099217;28;20134;-45
2022/05/27 04:10:10;;;;;;;0.93;0.60;;;22.70;68.20;;;;;;5099277;28;20058;-44
2022/05/27 04:12:37;;;;;;;1.13;0.65;;;22.70;68.20;;;;;;5101829;28;20136;-46
2022/05/27 04:15:04;;;;;;;1.05;0.63;;;22.70;68.10;;;;;;5103688;28;20032;-47
2022/05/27 04:17:30;;;;;;;1.13;0.60;;;22.70;68.10;;;;;;5101573;28;20036;-51
2022/05/27 04:20:00;;;;;;;1.08;0.75;;;22.70;68.00;;;;;;5099923;28;20048;-49
2022/05/27 04:22:27;;;;;;;2.50;0.80;;;22.70;68.00;;;;;;5094370;28;20056;-45
2022/05/27 04:24:53;;;;;;;0.70;0.60;;;22.70;68.00;;;;;;5089884;28;20034;-51
2022/05/27 04:27:20;;;;;;;1.33;0.80;;;22.70;68.00;;;;;;5099046;28;20106;-45
2022/05/27 04:29:50;;;;;;;1.52;0.50;;;22.70;68.00;;;;;;5097848;28;20078;-46
2022/05/27 04:32:16;;;;;;;1.42;0.70;;;22.70;68.10;;;;;;5098296;28;20036;-45
2022/05/27 04:34:42;;;;;;;1.50;0.70;;;22.70;68.00;;;;;;5103185;28;20085;-45
2022/05/27 04:37:09;;;;;;;1.70;0.70;;;22.70;68.00;;;;;;5103421;28;20046;-48
2022/05/27 04:39:35;;;;;;;0.93;0.80;;;22.70;68.00;;;;;;5097904;28;20056;-44
2022/05/27 04:42:01;;;;;;;1.70;0.70;;;22.70;68.00;;;;;;5102781;28;20031;-40
2022/05/27 04:44:27;;;;;;;0.85;0.60;;;22.70;68.00;;;;;;5097877;28;20015;-39
2022/05/27 04:46:53;;;;;;;0.95;0.80;;;22.70;68.00;;;;;;5103081;28;20036;-39
2022/05/27 04:52:05;;;;;;;0.80;0.80;;;22.70;68.00;;;;;;5107586;28;20046;-45
2022/05/27 04:54:31;;;;;;;1.35;0.90;;;22.70;68.00;;;;;;5099491;28;20132;-47
2022/05/27 04:56:57;;;;;;;0.80;0.73;;;22.80;68.00;;;;;;5103099;28;20040;-45
2022/05/27 04:59:23;;;;;;;1.40;0.80;;;22.80;68.00;;;;;;5094564;28;20042;-45
2022/05/27 05:01:50;;;;;;;1.00;0.80;;;22.70;67.90;;;;;;5101509;28;20028;-48
2022/05/27 05:04:16;;;;;;;1.38;0.80;;;22.70;67.90;;;;;;5100222;28;20065;-44
2022/05/27 05:06:42;;;;;;;2.33;0.73;;;22.70;67.90;;;;;;5105005;28;20035;-43
2022/05/27 05:09:08;;;;;;;0.93;0.80;;;22.70;67.80;;;;;;5101908;28;20122;-44
2022/05/27 05:11:35;;;;;;;1.00;0.80;;;22.70;67.90;;;;;;5100866;28;20032;-45
2022/05/27 05:14:01;;;;;;;1.80;0.80;;;22.80;67.90;;;;;;5101793;28;20119;-46
2022/05/27 05:16:27;;;;;;;1.33;0.80;;;22.80;67.90;;;;;;5099389;28;20028;-45
2022/05/27 05:18:54;;;;;;;2.38;0.70;;;22.70;67.80;;;;;;5099850;28;20055;-44
2022/05/27 05:21:20;;;;;;;0.90;0.80;;;22.80;67.90;;;;;;5099661;28;20023;-48
2022/05/27 05:23:46;;;;;;;1.27;0.85;;;22.80;67.90;;;;;;5101001;28;20161;-45
2022/05/27 05:26:12;;;;;;;1.05;0.70;;;22.80;67.90;;;;;;5105006;28;20036;-42
2022/05/27 05:28:38;;;;;;;0.95;0.70;;;22.80;67.90;;;;;;5096316;28;20039;-44
2022/05/27 05:31:06;;;;;;;2.05;0.70;;;22.80;68.00;;;;;;5100809;28;20046;-43
2022/05/27 05:33:33;;;;;;;1.33;0.80;;;22.80;68.00;;;;;;5097872;28;20035;-46
2022/05/27 05:35:59;;;;;;;;;;;22.80;67.90;;;;;;5099518;28;20050;-44
2022/05/27 05:38:27;;;;;;;1.83;0.90;;;22.80;67.80;;;;;;5101755;28;19916;-46
2022/05/27 05:40:53;;;;;;;0.93;0.70;;;22.80;67.90;;;;;;5105156;28;20053;-47
2022/05/27 05:43:19;;;;;;;2.05;0.88;;;22.80;67.90;;;;;;5101565;28;20021;-48
2022/05/27 05:45:46;;;;;;;0.90;0.70;;;22.80;67.90;;;;;;5100911;28;20042;-46
2022/05/27 05:48:12;;;;;;;0.95;0.68;;;22.80;67.80;;;;;;5103054;28;20024;-48
2022/05/27 05:50:38;;;;;;;0.80;0.60;;;22.80;67.90;;;;;;5100481;28;20099;-46
2022/05/27 05:53:04;;;;;;;1.02;0.70;;;22.80;67.90;;;;;;5104364;28;20035;-45
2022/05/27 05:55:34;;;;;;;2.10;1.05;;;22.80;67.80;;;;;;5103163;28;20031;-40
2022/05/27 05:58:00;;;;;;;1.13;0.73;;;22.80;67.80;;;;;;5099700;28;20033;-40
2022/05/27 06:00:26;;;;;;;0.70;0.70;;;22.80;67.80;;;;;;5098238;28;20921;-45
2022/05/27 06:02:53;;;;;;;0.90;0.70;;;22.80;67.80;;;;;;5095811;28;20024;-45
2022/05/27 06:05:19;;;;;;;0.75;0.60;;;22.80;67.80;;;;;;5100427;28;20412;-44
2022/05/27 06:07:46;;;;;;;0.63;0.63;;;22.80;67.80;;;;;;5104778;28;20024;-39
2022/05/27 06:10:13;;;;;;;1.27;0.80;;;22.80;67.70;;;;;;5094868;28;20074;-39
2022/05/27 06:12:39;;;;;;;4.97;0.70;;;22.80;67.80;;;;;;5092420;28;21522;-43
2022/05/27 06:15:08;;;;;;;0.77;0.60;;;22.80;67.70;;;;;;5094493;28;20772;-44
2022/05/27 06:17:34;;;;;;;2.65;0.77;;;22.80;67.70;;;;;;5100036;28;20028;-47
2022/05/27 06:20:01;;;;;;;1.83;0.93;;;22.80;67.80;;;;;;5097163;28;20055;-47
2022/05/27 06:22:27;;;;;;;1.20;0.73;;;22.80;67.90;;;;;;5093692;28;20035;-43
2022/05/27 06:24:53;;;;;;;1.20;0.60;;;22.80;67.90;;;;;;5098447;28;20118;-44
2022/05/27 06:27:19;;;;;;;0.98;0.52;;;22.90;68.00;;;;;;5096720;28;20024;-44
2022/05/27 06:35:15;;;;;;;0.93;0.68;;;22.80;67.90;;;;;;5105113;28;20039;-42
2022/05/27 06:37:41;;;;;;;1.58;0.63;;;22.80;67.80;;;;;;5099255;28;20063;-45
2022/05/27 06:40:07;;;;;;;0.82;0.65;;;22.80;67.80;;;;;;5098278;28;20142;-48
2022/05/27 06:42:34;;;;;;;1.33;0.80;;;22.90;67.90;;;;;;5101468;28;20027;-45
2022/05/27 06:45:00;;;;;;;0.85;0.70;;;22.90;68.00;;;;;;5103712;28;20036;-44
2022/05/27 06:47:26;;;;;;;1.70;1.10;;;22.80;67.90;;;;;;5098449;28;20036;-44
2022/05/27 06:49:52;;;;;;;0.60;0.60;;;22.80;67.90;;;;;;5104416;28;20036;-44
2022/05/27 06:52:20;;;;;;;1.13;0.70;;;22.80;67.80;;;;;;5105146;28;20089;-46
2022/05/27 06:54:46;;;;;;;1.08;0.70;;;22.80;67.80;;;;;;5104197;28;20042;-45
2022/05/27 06:57:13;;;;;;;0.90;0.52;;;22.90;67.90;;;;;;5101793;28;20097;-44
2022/05/27 06:59:39;;;;;;;1.52;0.70;;;22.80;67.80;;;;;;5106317;28;20046;-46
2022/05/27 07:02:05;;;;;;;0.75;0.70;;;22.90;67.80;;;;;;5107310;28;20047;-43
2022/05/27 07:04:31;;;;;;;0.83;0.60;;;22.80;67.70;;;;;;5104099;28;20035;-44
2022/05/27 07:06:57;;;;;;;0.80;0.60;;;22.90;67.80;;;;;;5103084;28;20024;-46
2022/05/27 07:09:24;;;;;;;1.35;0.70;;;22.80;67.60;;;;;;5107477;28;20024;-44
2022/05/27 07:11:52;;;;;;;2.90;0.70;;;22.80;67.70;;;;;;5113207;28;20680;-51
2022/05/27 07:14:19;;;;;;;0.52;0.50;;;22.90;67.70;;;;;;5096453;28;20133;-45
2022/05/27 07:16:46;;;;;;;0.95;0.70;;;22.80;67.60;;;;;;5096742;28;20092;-42
2022/05/27 07:19:12;;;;;;;0.47;0.47;;;22.90;67.70;;;;;;5108675;28;20067;-44
2022/05/27 07:21:58;;;;;;;1.08;0.60;;;22.90;67.60;;;;;;5108315;28;20142;-49
2022/05/27 07:24:25;;;;;;;0.95;0.70;;;22.90;67.60;;;;;;5017387;28;20042;-43
2022/05/27 07:26:51;;;;;;;1.90;0.67;;;22.80;67.60;;;;;;5015809;28;20044;-48
2022/05/27 07:29:17;;;;;;;0.68;0.63;;;22.90;67.60;;;;;;4996319;28;20040;-43
2022/05/27 07:31:44;;;;;;;0.70;0.43;;;22.90;67.70;;;;;;5016968;28;20495;-45
2022/05/27 07:34:10;;;;;;;0.75;0.60;;;22.90;67.50;;;;;;5017933;28;20045;-48
2022/05/27 07:36:36;;;;;;;1.13;0.47;;;22.90;67.50;;;;;;5016069;28;20132;-49
2022/05/27 07:39:04;;;;;;;0.70;0.60;;;22.90;67.60;;;;;;4998677;28;20042;-45
2022/05/27 07:41:30;;;;;;;0.57;0.50;;;22.90;67.50;;;;;;5016766;28;20107;-43
2022/05/27 07:43:59;;;;;;;1.05;0.80;;;22.90;67.50;;;;;;5014533;28;20046;-49
2022/05/27 07:46:25;;;;;;;1.08;0.60;;;22.90;67.50;;;;;;5015384;28;20038;-44
2022/05/27 07:48:51;;;;;;;1.55;0.50;;;22.90;67.50;;;;;;5000379;28;20049;-50
2022/05/27 07:51:17;;;;;;;0.60;0.60;;;22.90;67.50;;;;;;5003457;28;20026;-45
2022/05/27 07:53:43;;;;;;;1.13;0.60;;;22.90;67.50;;;;;;5011027;28;20040;-46
2022/05/27 07:56:10;;;;;;;1.42;0.60;;;22.90;67.50;;;;;;5008784;28;20068;-43
2022/05/27 07:58:37;;;;;;;1.40;0.70;;;22.90;67.40;;;;;;5015109;28;20030;-44
2022/05/27 08:01:03;;;;;;;2.90;0.50;;;22.90;67.20;;;;;;5036561;28;20143;-60
2022/05/27 08:03:30;;;;;;;2.58;0.57;;;22.90;66.80;;;;;;5100072;28;20032;-45
2022/05/27 08:05:56;;;;;;;1.17;0.60;;;22.90;66.80;;;;;;5099160;28;20155;-46
2022/05/27 08:08:23;;;;;;;0.68;0.47;;;22.90;66.60;;;;;;5102359;28;20027;-44
2022/05/27 08:10:49;;;;;;;1.08;0.60;;;22.90;66.40;;;;;;5098335;28;20040;-46
2022/05/27 08:13:15;;;;;;;1.58;0.40;;;22.90;66.30;;;;;;5105265;28;20022;-43
2022/05/27 08:15:42;;;;;;;0.70;0.60;;;22.90;66.30;;;;;;5103618;28;20047;-48
2022/05/27 08:18:08;;;;;;;1.17;0.40;;;22.90;66.30;;;;;;5104711;28;20132;-46
2022/05/27 08:20:35;;;;;;;2.15;0.60;;;22.90;66.30;;;;;;5102281;28;20052;-47
2022/05/27 08:23:02;;;;;;;0.73;0.45;;;22.90;66.40;;;;;;5103585;28;20460;-45
2022/05/27 08:25:28;;;;;;;1.85;0.70;;;22.90;66.60;;;;;;5095259;28;20624;-46
2022/05/27 08:27:55;;;;;;;0.80;0.60;;;22.90;66.30;;;;;;5106695;28;20028;-43
2022/05/27 08:30:27;;;;;;;0.93;0.68;;;22.90;66.30;;;;;;5097166;28;20031;-48
2022/05/27 08:32:53;;;;;;;0.82;0.40;;;22.90;66.30;;;;;;5101366;28;20035;-43
2022/05/27 08:38:07;;;;;;;1.10;0.40;;;22.90;66.20;;;;;;5100900;28;20074;-45
2022/05/27 08:40:42;;;;;;;0.45;0.40;;;22.90;66.20;;;;;;5102970;28;20172;-43
2022/05/27 08:43:11;;;;;;;1.55;0.50;;;22.90;66.10;;;;;;5102032;28;20047;-44
2022/05/27 08:45:44;;;;;;;2.33;0.50;;;22.90;65.90;;;;;;5101495;28;20035;-44
2022/05/27 08:48:10;;;;;;;0.60;0.40;;;22.90;66.20;;;;;;5103695;28;20373;-45
2022/05/27 08:50:39;;;;;;;0.88;0.50;;;22.90;65.90;;;;;;5101326;28;20024;-46
2022/05/27 08:53:38;;;;;;;0.50;0.45;;;22.90;65.90;;;;;;5097629;28;20039;-46
2022/05/27 08:59:28;;;;;;;0.93;0.50;;;22.90;65.90;;;;;;5099173;28;20051;-48
2022/05/27 09:02:32;;;;;;;0.60;0.50;;;22.90;66.00;;;;;;5100491;28;20095;-45
2022/05/27 09:05:14;;;;;;;1.75;0.40;;;22.90;65.90;;;;;;5100310;28;20028;-44
2022/05/27 09:07:55;;;;;;;1.00;0.50;;;22.90;65.80;;;;;;5096347;28;20044;-45
2022/05/27 09:10:43;;;;;;;0.70;0.50;;;22.90;65.80;;;;;;5090004;28;20024;-43
2022/05/27 09:13:34;;;;;;;2.33;0.40;;;22.90;65.70;;;;;;5078510;28;20071;-47
2022/05/27 09:16:21;;;;;;;0.85;0.50;;;22.90;65.70;;;;;;5087055;28;20040;-44
2022/05/27 09:19:05;;;;;;;0.50;0.45;;;22.90;65.80;;;;;;5084638;28;20576;-46
2022/05/27 09:21:47;;;;;;;2.28;0.55;;;22.80;65.70;;;;;;5083800;28;20036;-45
2022/05/27 09:24:22;;;;;;;0.52;0.40;;;22.90;65.70;;;;;;5089855;28;20036;-44
2022/05/27 09:26:51;;;;;;;0.52;0.40;;;22.90;65.70;;;;;;5096464;28;20036;-43
2022/05/27 09:29:47;;;;;;;0.55;0.55;;;22.90;65.70;;;;;;5090317;28;20028;-44
2022/05/27 09:32:32;;;;;;;1.08;0.50;;;22.80;65.60;;;;;;5095350;28;20055;-43
2022/05/27 09:35:06;;;;;;;0.65;0.40;;;22.80;65.60;;;;;;5102112;28;20024;-45
2022/05/27 09:37:36;;;;;;;1.00;0.40;;;22.80;65.60;;;;;;5099694;28;20024;-46
2022/05/27 09:40:10;;;;;;;0.73;0.50;;;22.80;65.70;;;;;;5099225;28;20071;-44
2022/05/27 09:42:45;;;;;;;1.45;0.43;;;22.80;65.60;;;;;;5092153;28;20024;-45
2022/05/27 09:45:12;;;;;;;0.40;0.40;;;22.80;65.70;;;;;;5098025;28;20147;-46
2022/05/27 09:47:38;;;;;;;2.38;0.40;;;22.80;65.60;;;;;;5099822;28;20026;-44
2022/05/27 09:50:05;;;;;;;0.60;0.50;;;22.80;65.60;;;;;;5095792;28;20031;-48
2022/05/27 09:52:35;;;;;;;0.45;0.40;;;22.80;65.60;;;;;;5096400;28;20017;-44
2022/05/27 09:55:22;;;;;;;0.63;0.40;;;22.80;65.60;;;;;;5096139;28;20446;-47
2022/05/27 09:58:15;;;;;;;0.82;0.45;;;22.80;65.60;;;;;;5088845;28;20040;-45
2022/05/27 10:00:45;;;;;;;0.88;0.45;;;22.80;65.50;;;;;;5113004;27;20595;-46
2022/05/27 10:03:37;;;;;;;1.00;0.40;;;22.80;65.60;;;;;;5094935;28;20092;-45
2022/05/27 10:06:16;;;;;;;0.75;0.50;;;22.80;65.50;;;;;;5092767;28;20027;-45
2022/05/27 10:08:53;;;;;;;1.38;0.38;;;22.80;65.60;;;;;;5085178;28;20381;-45
2022/05/27 10:11:22;;;;;;;1.60;0.50;;;22.80;65.60;;;;;;5089092;28;20060;-43
2022/05/27 10:13:50;;;;;;;0.60;0.38;;;22.80;65.60;;;;;;5095049;28;20043;-47
2022/05/27 10:16:26;;;;;;;0.70;0.47;;;22.80;65.60;;;;;;5102891;27;20560;-51
2022/05/27 10:19:22;;;;;;;2.10;0.50;;;22.80;65.60;;;;;;5084551;28;20696;-49
2022/05/27 10:22:02;;;;;;;3.85;0.57;;;22.80;65.80;;;;;;5089719;28;20039;-46
2022/05/27 10:24:40;;;;;;;2.58;0.43;;;22.70;65.80;;;;;;5093058;28;20043;-46
2022/05/27 10:27:15;;;;;;;2.72;0.50;;;22.70;65.90;;;;;;5088138;28;20032;-46
2022/05/27 10:29:51;;;;;;;1.45;0.50;;;22.80;66.10;;;;;;5098108;28;20108;-47
2022/05/27 10:32:31;;;;;;;3.97;0.50;;;22.70;66.10;;;;;;5086853;28;20056;-56
2022/05/27 10:34:59;;;;;;;2.35;0.40;;;22.70;66.00;;;;;;5090478;28;20038;-56
2022/05/27 10:38:07;;;;;;;1.35;0.40;;;22.70;66.10;;;;;;5090206;28;20028;-50
2022/05/27 10:40:45;;;;;;;4.65;0.68;;;22.70;66.00;;;;;;5091264;28;20055;-53
2022/05/27 10:43:39;;;;;;;2.30;0.50;;;22.70;66.00;;;;;;5096126;28;20024;-43
2022/05/27 10:46:07;;;;;;;1.73;0.60;;;22.70;66.30;;;;;;5114216;28;20030;-44
2022/05/27 10:48:56;;;;;;;3.13;0.60;;;22.70;66.40;;;;;;5118199;28;20022;-45
2022/05/27 10:51:34;;;;;;;1.98;0.68;;;22.70;66.30;;;;;;5093631;28;20056;-46
2022/05/27 10:54:35;;;;;;;2.85;0.55;;;22.70;66.20;;;;;;5104826;28;20039;-45
2022/05/27 11:03:15;;;;;;;1.55;0.50;;;22.60;66.00;;;;;;5023081;28;20053;-45
2022/05/27 11:06:03;;;;;;;1.65;0.40;;;22.60;65.90;;;;;;5037260;28;20068;-44
2022/05/27 11:08:30;;;;;;;0.95;0.50;;;22.60;65.80;;;;;;5021435;28;20110;-44
2022/05/27 11:11:17;;;;;;;1.23;0.55;;;22.60;65.70;;;;;;5037107;28;20029;-47
2022/05/27 11:17:20;;;;;;;3.40;0.70;;;22.60;65.60;;;;;;5036717;28;20772;-45
2022/05/27 11:20:24;;;;;;;3.17;0.65;;;22.60;65.50;;;;;;5035470;28;20045;-45
2022/05/27 11:23:23;;;;;;;1.92;0.70;;;22.60;65.40;;;;;;5023001;28;20077;-43
2022/05/27 11:26:12;;;;;;;0.80;0.52;;;22.50;65.30;;;;;;5036860;28;20065;-45
2022/05/27 11:28:50;;;;;;;3.70;0.70;;;22.60;65.40;;;;;;4991325;28;20856;-46
2022/05/27 11:31:25;;;;;;;2.35;0.70;;;22.60;65.30;;;;;;5043533;28;20641;-45
2022/05/27 11:34:28;;;;;;;1.95;0.60;;;22.60;65.20;;;;;;5100433;28;20040;-44
2022/05/27 11:37:06;;;;;;;1.40;0.60;;;22.50;65.10;;;;;;5103432;28;20058;-44
2022/05/27 11:40:06;;;;;;;1.20;0.70;;;22.50;65.20;;;;;;5107079;28;20032;-43
2022/05/27 11:43:05;;;;;;;1.20;0.70;;;22.50;65.00;;;;;;5108157;28;20134;-49
2022/05/27 11:45:31;;;;;;;1.38;0.60;;;22.50;65.10;;;;;;5106565;28;20106;-44
2022/05/27 11:48:08;;;;;;;1.25;0.57;;;22.50;65.00;;;;;;5109723;28;20049;-43
2022/05/27 11:51:05;;;;;;;0.47;0.40;;;22.50;65.00;;;;;;5105960;28;20027;-43
2022/05/27 11:53:44;;;;;;;1.30;0.80;;;22.50;65.00;;;;;;5110091;28;20028;-46
2022/05/27 11:56:31;;;;;;;0.93;0.40;;;22.50;65.00;;;;;;5107660;28;20039;-47
2022/05/27 11:59:10;;;;;;;0.77;0.47;;;22.50;65.00;;;;;;5109735;28;20032;-45
2022/05/27 12:01:37;;;;;;;0.70;0.50;;;22.50;64.90;;;;;;5105430;28;20324;-43
2022/05/27 12:04:14;;;;;;;0.90;0.45;;;22.50;64.90;;;;;;5108892;28;20051;-45
2022/05/27 12:06:55;;;;;;;1.23;0.52;;;22.40;64.90;;;;;;5111308;28;20032;-44
2022/05/27 12:09:41;;;;;;;1.20;0.50;;;22.40;65.60;;;;;;5103131;28;20032;-45
2022/05/27 12:12:23;;;;;;;0.90;0.50;;;22.40;64.80;;;;;;5104791;28;20028;-46
2022/05/27 12:15:35;;;;;;;0.80;0.40;;;22.40;64.80;;;;;;5105666;28;20128;-47
2022/05/27 12:18:01;;;;;;;0.90;0.50;;;22.40;64.80;;;;;;5107081;28;20031;-45
2022/05/27 12:20:31;;;;;;;0.55;0.40;;;22.40;64.90;;;;;;5105922;28;20563;-43
2022/05/27 12:22:58;;;;;;;2.22;0.50;;;22.40;64.90;;;;;;5103445;28;20107;-45
2022/05/27 12:25:52;;;;;;;1.08;0.50;;;22.40;64.90;;;;;;5103570;28;20059;-44
2022/05/27 12:28:21;;;;;;;0.90;0.60;;;22.40;65.00;;;;;;5106087;28;20089;-46
2022/05/27 12:30:48;;;;;;;1.15;0.50;;;22.40;65.00;;;;;;5104795;28;20024;-44
2022/05/27 12:33:18;;;;;;;0.70;0.40;;;22.40;65.00;;;;;;5108955;28;20032;-45
2022/05/27 12:35:47;;;;;;;1.65;0.60;;;22.30;64.90;;;;;;5088732;28;20081;-44
2022/05/27 12:38:24;;;;;;;1.17;0.70;;;22.40;65.00;;;;;;5104532;28;20062;-45
2022/05/27 12:40:51;;;;;;;1.25;0.60;;;22.40;65.10;;;;;;5106741;28;20068;-45
2022/05/27 12:43:17;;;;;;;;;;;22.30;65.00;;;;;;5105990;28;20036;-44
2022/05/27 12:45:49;;;;;;;0.40;0.30;;;22.30;64.90;;;;;;5106066;28;19908;-44
2022/05/27 12:48:35;;;;;;;0.93;0.50;;;22.30;65.00;;;;;;5109432;28;21085;-43
2022/05/27 12:51:27;;;;;;;1.17;0.60;;;22.30;65.10;;;;;;5105519;28;20039;-47
2022/05/27 12:53:54;;;;;;;1.05;0.57;;;22.30;65.20;;;;;;5102523;28;20032;-45
2022/05/27 13:02:14;;;;;;;1.33;0.68;;;22.30;65.20;;;;;;5106064;28;20046;-43
2022/05/27 13:04:45;;;;;;;0.70;0.47;;;22.30;65.20;;;;;;5110278;28;20039;-45
2022/05/27 13:07:11;;;;;;;0.68;0.43;;;22.30;65.20;;;;;;5109633;28;20023;-46
2022/05/27 13:09:46;;;;;;;0.80;0.50;;;22.30;65.30;;;;;;5097140;28;20718;-46
2022/05/27 13:12:47;;;;;;;0.50;0.50;;;22.30;65.30;;;;;;5093618;28;20036;-45
2022/05/27 13:15:33;;;;;;;0.90;0.43;;;22.30;65.20;;;;;;5094725;28;20032;-43
2022/05/27 13:18:05;;;;;;;0.93;0.50;;;22.30;65.30;;;;;;5103357;28;20039;-50
2022/05/27 13:21:09;;;;;;;0.77;0.50;;;22.30;65.40;;;;;;5093125;28;20032;-47
2022/05/27 13:23:48;;;;;;;1.25;0.60;;;22.30;65.40;;;;;;5095757;28;20412;-43
2022/05/27 13:26:36;;;;;;;1.00;0.40;;;22.30;65.50;;;;;;5102059;28;20036;-44
2022/05/27 13:29:04;;;;;;;1.48;0.60;;;22.30;65.60;;;;;;5092726;28;20046;-44
2022/05/27 13:31:41;;;;;;;0.68;0.40;;;22.30;65.70;;;;;;5100798;28;20044;-43
2022/05/27 13:34:08;;;;;;;;;;;22.30;65.70;;;;;;5086170;28;20032;-45
2022/05/27 13:36:40;;;;;;;0.73;0.50;;;22.30;65.70;;;;;;5100911;28;19931;-44
2022/05/27 13:39:10;;;;;;;0.88;0.50;;;22.30;65.80;;;;;;5109896;28;20047;-43
2022/05/27 13:41:43;;;;;;;0.50;0.50;;;22.30;65.80;;;;;;5102914;28;20032;-45
2022/05/27 13:44:10;;;;;;;0.75;0.50;;;22.30;66.00;;;;;;5104451;28;20027;-44
2022/05/27 13:46:38;;;;;;;1.75;0.60;;;22.30;66.10;;;;;;5103216;28;20058;-44
2022/05/27 13:49:42;;;;;;;0.82;0.57;;;22.30;66.00;;;;;;5103174;28;20027;-44
2022/05/27 13:52:32;;;;;;;0.60;0.40;;;22.30;66.10;;;;;;5107982;28;20067;-44
2022/05/27 13:55:06;;;;;;;1.45;0.57;;;22.30;66.30;;;;;;5104765;28;20491;-45